createdAt,value
2022-09-21T00:00:51.943Z,10.30
2022-09-21T00:06:06.600Z,10.31
2022-09-21T00:11:18.474Z,10.31
2022-09-21T00:16:26.698Z,10.33
2022-09-21T00:21:35.548Z,10.33
2022-09-21T00:26:43.530Z,10.34
2022-09-21T00:31:51.514Z,10.34
2022-09-21T00:36:58.816Z,10.37
2022-09-21T00:42:17.542Z,10.38
2022-09-21T00:47:29.714Z,10.39
2022-09-21T00:52:40.210Z,10.40
2022-09-21T00:57:49.523Z,10.43
2022-09-21T01:03:03.098Z,10.44
2022-09-21T01:08:12.838Z,10.47
2022-09-21T01:13:31.432Z,10.49
2022-09-21T01:18:44.447Z,10.50
2022-09-21T01:24:25.780Z,10.52
2022-09-21T01:29:40.142Z,10.54
2022-09-21T01:34:52.903Z,10.56
2022-09-21T01:40:06.383Z,10.57
2022-09-21T01:45:17.715Z,10.58
2022-09-21T01:50:27.545Z,10.60
2022-09-21T01:55:42.974Z,10.60
2022-09-21T02:00:53.998Z,10.60
2022-09-21T02:06:04.362Z,10.59
2022-09-21T02:11:13.646Z,10.58
2022-09-21T02:16:40.001Z,10.56
2022-09-21T02:22:05.449Z,10.54
2022-09-21T02:27:26.079Z,10.53
2022-09-21T02:32:39.563Z,10.50
2022-09-21T02:37:57.279Z,10.48
2022-09-21T02:43:09.943Z,10.45
2022-09-21T02:48:22.487Z,10.44
2022-09-21T02:53:34.907Z,10.43
2022-09-21T02:58:45.840Z,10.40
2022-09-21T03:03:54.587Z,10.39
2022-09-21T03:09:03.008Z,10.38
2022-09-21T03:14:11.119Z,10.36
2022-09-21T03:19:19.236Z,10.36
2022-09-21T03:24:44.627Z,10.36
2022-09-21T03:29:53.002Z,10.34
2022-09-21T03:35:00.790Z,10.34
2022-09-21T03:40:09.563Z,10.32
2022-09-21T03:45:16.846Z,10.33
2022-09-21T03:50:29.145Z,10.33
2022-09-21T03:55:35.202Z,10.32
2022-09-21T04:00:43.369Z,10.32
2022-09-21T04:05:51.317Z,10.31
2022-09-21T04:11:00.436Z,10.30
2022-09-21T04:16:10.069Z,10.29
2022-09-21T04:21:17.988Z,10.29
2022-09-21T04:26:27.943Z,10.28
2022-09-21T04:31:36.873Z,10.27
2022-09-21T04:36:44.855Z,10.26
2022-09-21T04:41:52.906Z,10.26
2022-09-21T04:47:00.916Z,10.25
2022-09-21T04:52:09.182Z,10.25
2022-09-21T04:57:17.390Z,10.24
2022-09-21T05:02:25.737Z,10.24
2022-09-21T05:07:34.215Z,10.23
2022-09-21T05:12:44.354Z,10.23
2022-09-21T05:17:52.468Z,10.24
2022-09-21T05:23:03.885Z,10.24
2022-09-21T05:28:13.306Z,10.25
2022-09-21T05:33:23.821Z,10.25
2022-09-21T05:38:33.552Z,10.25
2022-09-21T05:43:42.268Z,10.26
2022-09-21T05:49:00.172Z,10.26
2022-09-21T05:54:17.266Z,10.26
2022-09-21T05:59:41.748Z,10.26
2022-09-21T06:04:52.333Z,10.28
2022-09-21T06:10:00.234Z,10.30
2022-09-21T06:15:12.541Z,10.33
2022-09-21T06:20:20.829Z,10.38
2022-09-21T06:25:28.646Z,10.43
2022-09-21T06:30:37.526Z,10.46
2022-09-21T06:35:45.828Z,10.53
2022-09-21T06:40:54.879Z,10.59
2022-09-21T06:46:04.018Z,10.68
2022-09-21T06:51:13.153Z,10.78
2022-09-21T06:56:21.684Z,10.87
2022-09-21T07:01:29.992Z,10.97
2022-09-21T07:06:38.782Z,11.08
2022-09-21T07:11:46.947Z,11.17
2022-09-21T07:16:56.297Z,11.26
2022-09-21T07:22:05.055Z,11.35
2022-09-21T07:27:13.204Z,11.44
2022-09-21T07:32:21.231Z,11.54
2022-09-21T07:37:30.502Z,11.63
2022-09-21T07:42:38.343Z,11.72
2022-09-21T07:47:46.850Z,11.80
2022-09-21T07:52:54.753Z,11.91
2022-09-21T07:58:21.781Z,12.08
2022-09-21T08:03:28.944Z,12.22
2022-09-21T08:08:36.317Z,12.32
2022-09-21T08:13:43.328Z,12.37
2022-09-21T08:18:50.636Z,12.41
2022-09-21T08:23:58.161Z,12.45
2022-09-21T08:29:06.939Z,12.51
2022-09-21T08:34:14.023Z,12.57
2022-09-21T08:39:21.079Z,12.67
2022-09-21T08:44:31.343Z,12.79
2022-09-21T08:49:42.533Z,12.89
2022-09-21T08:54:56.825Z,12.95
2022-09-21T09:00:14.837Z,12.99
2022-09-21T09:05:35.516Z,13.07
2022-09-21T09:10:52.488Z,13.18
2022-09-21T09:16:08.887Z,13.27
2022-09-21T09:21:30.911Z,13.37
2022-09-21T09:26:46.314Z,13.45
2022-09-21T09:31:56.323Z,13.47
2022-09-21T09:37:12.414Z,13.53
2022-09-21T09:42:33.446Z,13.61
2022-09-21T09:47:53.335Z,13.66
2022-09-21T09:53:05.991Z,13.72
2022-09-21T09:58:21.184Z,13.81
2022-09-21T10:03:29.371Z,13.88
2022-09-21T10:08:48.104Z,13.95
2022-09-21T10:13:56.382Z,13.99
2022-09-21T10:19:04.129Z,14.02
2022-09-21T10:24:24.087Z,14.04
2022-09-21T10:29:41.560Z,14.04
2022-09-21T10:35:16.904Z,14.10
2022-09-21T10:40:32.271Z,14.20
2022-09-21T10:45:39.740Z,14.31
2022-09-21T10:50:49.660Z,14.39
2022-09-21T10:56:15.657Z,14.43
2022-09-21T11:01:29.806Z,14.44
2022-09-21T11:06:42.722Z,14.43
2022-09-21T11:11:58.055Z,14.46
2022-09-21T11:17:11.692Z,14.49
2022-09-21T11:22:26.572Z,14.53
2022-09-21T11:27:36.973Z,14.58
2022-09-21T11:33:00.671Z,14.63
2022-09-21T11:38:22.645Z,14.68
2022-09-21T11:43:45.471Z,14.74
2022-09-21T11:49:06.405Z,14.80
2022-09-21T11:54:40.857Z,14.90
2022-09-21T12:00:16.220Z,15.01
2022-09-21T12:05:32.062Z,15.09
2022-09-21T12:10:46.876Z,15.15
2022-09-21T12:16:00.147Z,15.17
2022-09-21T12:21:16.200Z,15.18
2022-09-21T12:26:27.196Z,15.20
2022-09-21T12:31:41.494Z,15.21
2022-09-21T12:36:55.564Z,15.23
2022-09-21T12:42:09.798Z,15.21
2022-09-21T12:47:18.248Z,15.19
2022-09-21T12:52:29.518Z,15.15
2022-09-21T12:58:13.989Z,15.10
2022-09-21T13:03:28.242Z,15.04
2022-09-21T13:08:39.364Z,15.00
2022-09-21T13:13:53.294Z,14.97
2022-09-21T13:19:03.093Z,14.95
2022-09-21T13:24:27.487Z,14.93
2022-09-21T13:29:37.032Z,14.93
2022-09-21T13:34:45.712Z,14.94
2022-09-21T13:40:20.214Z,14.97
2022-09-21T13:45:50.924Z,14.99
2022-09-21T13:51:01.921Z,15.06
2022-09-21T13:56:20.730Z,15.11
2022-09-21T14:01:46.830Z,15.19
2022-09-21T14:06:56.868Z,15.27
2022-09-21T14:12:08.633Z,15.30
2022-09-21T14:17:39.034Z,15.31
2022-09-21T14:22:47.331Z,15.30
2022-09-21T14:27:55.542Z,15.26
2022-09-21T14:33:20.400Z,15.22
2022-09-21T14:38:31.188Z,15.18
2022-09-21T14:43:42.416Z,15.13
2022-09-21T14:49:00.897Z,15.09
2022-09-21T14:54:22.988Z,15.05
2022-09-21T14:59:36.088Z,15.02
2022-09-21T15:04:56.656Z,14.99
2022-09-21T15:10:39.596Z,14.95
2022-09-21T15:16:00.467Z,14.91
2022-09-21T15:21:22.299Z,14.84
2022-09-21T15:26:32.360Z,14.77
2022-09-21T15:31:41.954Z,14.71
2022-09-21T15:36:52.474Z,14.64
2022-09-21T15:42:24.255Z,14.56
2022-09-21T15:47:31.888Z,14.47
2022-09-21T15:52:44.585Z,14.42
2022-09-21T15:57:53.548Z,14.34
2022-09-21T16:03:07.816Z,14.27
2022-09-21T16:08:30.387Z,14.20
2022-09-21T16:13:55.303Z,14.13
2022-09-21T16:19:02.717Z,14.04
2022-09-21T16:24:19.710Z,13.97
2022-09-21T16:29:28.907Z,13.88
2022-09-21T16:34:37.613Z,13.80
2022-09-21T16:39:45.008Z,13.70
2022-09-21T16:44:53.220Z,13.60
2022-09-21T16:50:02.131Z,13.50
2022-09-21T16:55:11.983Z,13.39
2022-09-21T17:00:22.405Z,13.27
2022-09-21T17:05:29.950Z,13.17
2022-09-21T17:10:41.396Z,13.06
2022-09-21T17:15:51.203Z,12.94
2022-09-21T17:20:58.742Z,12.82
2022-09-21T17:26:05.819Z,12.72
2022-09-21T17:31:15.958Z,12.62
2022-09-21T17:36:23.399Z,12.51
2022-09-21T17:41:36.714Z,12.41
2022-09-21T17:46:55.502Z,12.31
2022-09-21T17:52:21.280Z,12.21
2022-09-21T17:57:41.995Z,12.11
2022-09-21T18:02:50.019Z,12.02
2022-09-21T18:07:58.427Z,11.93
2022-09-21T18:13:25.199Z,11.86
2022-09-21T18:18:44.910Z,11.79
2022-09-21T18:24:18.115Z,11.70
2022-09-21T18:29:40.726Z,11.66
2022-09-21T18:35:12.521Z,11.61
2022-09-21T18:40:28.113Z,11.57
2022-09-21T18:45:43.363Z,11.55
2022-09-21T18:51:00.119Z,11.54
2022-09-21T18:56:12.280Z,11.51
2022-09-21T19:01:22.661Z,11.49
2022-09-21T19:06:46.875Z,11.47
2022-09-21T19:12:03.107Z,11.45
2022-09-21T19:17:23.601Z,11.42
2022-09-21T19:22:41.940Z,11.40
2022-09-21T19:27:56.957Z,11.38
2022-09-21T19:33:48.839Z,11.36
2022-09-21T19:38:55.703Z,11.34
2022-09-21T19:44:11.995Z,11.33
2022-09-21T19:49:21.457Z,11.31
2022-09-21T19:54:47.501Z,11.29
2022-09-21T19:59:56.094Z,11.28
2022-09-21T20:05:08.136Z,11.26
2022-09-21T20:10:50.611Z,11.25
2022-09-21T20:16:04.199Z,11.24
2022-09-21T20:21:16.182Z,11.23
2022-09-21T20:26:27.450Z,11.21
2022-09-21T20:31:34.517Z,11.21
2022-09-21T20:36:41.639Z,11.17
2022-09-21T20:41:49.137Z,11.18
2022-09-21T20:46:56.443Z,11.15
2022-09-21T20:52:04.017Z,11.16
2022-09-21T20:57:11.663Z,11.15
2022-09-21T21:02:19.319Z,11.15
2022-09-21T21:07:30.370Z,11.13
2022-09-21T21:12:39.189Z,11.13
2022-09-21T21:17:48.305Z,11.13
2022-09-21T21:22:56.336Z,11.11
2022-09-21T21:28:03.918Z,11.11
2022-09-21T21:33:11.587Z,11.12
2022-09-21T21:38:18.867Z,11.11
2022-09-21T21:43:26.387Z,11.11
2022-09-21T21:48:34.157Z,11.11
2022-09-21T21:53:43.232Z,11.10
2022-09-21T21:58:52.997Z,11.10
2022-09-21T22:04:01.659Z,11.09
2022-09-21T22:09:12.557Z,11.08
2022-09-21T22:14:20.545Z,11.06
2022-09-21T22:19:28.200Z,11.06
2022-09-21T22:24:35.441Z,11.05
2022-09-21T22:29:42.622Z,11.05
2022-09-21T22:34:50.895Z,11.02
2022-09-21T22:40:00.036Z,11.02
2022-09-21T22:45:08.452Z,11.00
2022-09-21T22:50:16.094Z,10.99
2022-09-21T22:55:24.261Z,10.97
2022-09-21T23:00:32.500Z,10.96
2022-09-21T23:05:40.143Z,10.94
2022-09-21T23:10:47.525Z,10.92
2022-09-21T23:15:55.057Z,10.91
2022-09-21T23:21:06.191Z,10.90
2022-09-21T23:26:16.641Z,10.88
2022-09-21T23:31:24.581Z,10.85
2022-09-21T23:36:33.591Z,10.84
2022-09-21T23:41:40.843Z,10.82
2022-09-21T23:46:48.149Z,10.80
2022-09-21T23:51:55.463Z,10.77
2022-09-21T23:57:03.050Z,10.76
